CheckWX is a tool to help pilots better visualize weather data.  It is not intended as a substitute for an official pre-flight weather briefing.

07:58:34 UTC

RKPK TAF
Gimhae International Airport
Busan, South Korea
TAF RKPK 240500Z 2406/2512 21006KT CAVOK TX24/2406Z TN13/2421Z

May-24@
06:00 UTC

May-24 @ 06:00 UTC

May-25@
12:00 UTC

May-25 @ 12:00 UTC

TAF RKPK 240500Z 2406/2512 21006KT CAVOK TX24/2406Z TN13/2421Z
Wind
  • 210° at 6 KTS
Cloud Levels
  • No significant clouds